createdAt,value
2022-08-26T00:01:57.029Z,57.74
2022-08-26T00:04:26.148Z,57.57
2022-08-26T00:06:55.670Z,57.93
2022-08-26T00:09:24.645Z,58.02
2022-08-26T00:11:53.898Z,57.98
2022-08-26T00:14:25.036Z,57.89
2022-08-26T00:16:55.432Z,58.96
2022-08-26T00:19:22.839Z,58.84
2022-08-26T00:21:50.640Z,59.63
2022-08-26T00:24:20.888Z,58.99
2022-08-26T00:26:49.163Z,59.30
2022-08-26T00:29:17.192Z,59.71
2022-08-26T00:31:45.662Z,59.67
2022-08-26T00:34:15.345Z,60.08
2022-08-26T00:36:43.803Z,59.93
2022-08-26T00:39:11.112Z,59.89
2022-08-26T00:41:40.997Z,60.17
2022-08-26T00:44:11.240Z,60.26
2022-08-26T00:46:47.181Z,60.69
2022-08-26T00:49:37.613Z,60.40
2022-08-26T00:52:09.721Z,61.05
2022-08-26T00:54:46.809Z,60.82
2022-08-26T00:57:18.378Z,61.48
2022-08-26T00:59:52.110Z,61.47
2022-08-26T01:02:20.050Z,61.34
2022-08-26T01:04:55.451Z,61.24
2022-08-26T01:07:26.260Z,61.48
2022-08-26T01:09:56.508Z,60.57
2022-08-26T01:12:25.877Z,61.37
2022-08-26T01:14:53.078Z,61.68
2022-08-26T01:17:20.170Z,61.23
2022-08-26T01:19:54.655Z,61.51
2022-08-26T01:22:31.655Z,60.92
2022-08-26T01:25:04.566Z,61.12
2022-08-26T01:27:33.551Z,61.49
2022-08-26T01:30:02.456Z,61.67
2022-08-26T01:32:33.623Z,61.91
2022-08-26T01:35:01.630Z,61.91
2022-08-26T01:37:36.444Z,62.25
2022-08-26T01:40:08.324Z,61.69
2022-08-26T01:42:35.693Z,62.11
2022-08-26T01:45:14.761Z,62.47
2022-08-26T01:47:43.130Z,62.70
2022-08-26T01:50:28.144Z,62.79
2022-08-26T01:53:02.923Z,61.92
2022-08-26T01:55:34.104Z,61.92
2022-08-26T01:58:10.669Z,63.20
2022-08-26T02:00:39.238Z,63.30
2022-08-26T02:03:17.380Z,63.28
2022-08-26T02:05:53.325Z,63.11
2022-08-26T02:08:32.892Z,63.35
2022-08-26T02:11:00.438Z,63.19
2022-08-26T02:13:31.492Z,63.63
2022-08-26T02:16:01.154Z,63.84
2022-08-26T02:18:34.247Z,63.53
2022-08-26T02:21:01.553Z,63.59
2022-08-26T02:23:28.751Z,63.86
2022-08-26T02:26:04.878Z,63.31
2022-08-26T02:28:40.008Z,63.41
2022-08-26T02:31:07.915Z,63.56
2022-08-26T02:33:35.227Z,64.30
2022-08-26T02:36:03.612Z,63.86
2022-08-26T02:38:30.729Z,64.43
2022-08-26T02:40:57.815Z,63.84
2022-08-26T02:43:31.329Z,64.55
2022-08-26T02:46:00.058Z,64.58
2022-08-26T02:48:28.741Z,63.95
2022-08-26T02:50:55.789Z,64.55
2022-08-26T02:53:25.456Z,64.76
2022-08-26T02:55:52.992Z,64.90
2022-08-26T02:58:20.646Z,65.11
2022-08-26T03:00:52.799Z,64.62
2022-08-26T03:03:22.498Z,64.33
2022-08-26T03:05:52.401Z,64.45
2022-08-26T03:08:20.441Z,65.23
2022-08-26T03:10:48.537Z,65.04
2022-08-26T03:13:18.157Z,65.37
2022-08-26T03:15:45.954Z,64.90
2022-08-26T03:18:15.014Z,65.33
2022-08-26T03:20:42.100Z,65.38
2022-08-26T03:23:11.067Z,65.70
2022-08-26T03:25:38.674Z,65.60
2022-08-26T03:28:05.969Z,65.70
2022-08-26T03:30:44.847Z,65.96
2022-08-26T03:33:13.790Z,66.28
2022-08-26T03:35:43.744Z,66.46
2022-08-26T03:38:11.479Z,66.32
2022-08-26T03:40:39.901Z,66.38
2022-08-26T03:43:09.571Z,66.56
2022-08-26T03:45:37.798Z,66.47
2022-08-26T03:48:05.826Z,66.32
2022-08-26T03:50:34.347Z,66.24
2022-08-26T03:53:04.234Z,66.19
2022-08-26T03:55:34.603Z,66.30
2022-08-26T03:58:03.181Z,66.93
2022-08-26T04:00:31.074Z,67.02
2022-08-26T04:02:58.118Z,66.84
2022-08-26T04:05:25.413Z,66.27
2022-08-26T04:07:52.972Z,66.80
2022-08-26T04:10:29.025Z,67.01
2022-08-26T04:12:59.303Z,67.11
2022-08-26T04:15:27.546Z,66.93
2022-08-26T04:17:56.055Z,67.45
2022-08-26T04:20:25.336Z,66.97
2022-08-26T04:22:52.428Z,67.04
2022-08-26T04:25:20.497Z,66.92
2022-08-26T04:27:48.311Z,66.85
2022-08-26T04:30:16.012Z,67.60
2022-08-26T04:32:44.082Z,67.77
2022-08-26T04:35:11.245Z,67.55
2022-08-26T04:37:38.585Z,67.78
2022-08-26T04:40:06.836Z,68.02
2022-08-26T04:42:34.330Z,67.87
2022-08-26T04:45:02.083Z,67.66
2022-08-26T04:47:33.012Z,67.99
2022-08-26T04:50:00.331Z,67.76
2022-08-26T04:52:29.312Z,67.92
2022-08-26T04:54:58.169Z,68.02
2022-08-26T04:57:25.244Z,67.82
2022-08-26T04:59:53.167Z,68.04
2022-08-26T05:02:20.679Z,68.24
2022-08-26T05:04:47.639Z,68.06
2022-08-26T05:07:18.914Z,68.53
2022-08-26T05:09:48.197Z,68.40
2022-08-26T05:12:15.225Z,68.65
2022-08-26T05:14:43.492Z,68.65
2022-08-26T05:17:10.507Z,68.66
2022-08-26T05:19:43.013Z,68.52
2022-08-26T05:22:10.446Z,68.29
2022-08-26T05:24:41.300Z,68.88
2022-08-26T05:27:11.752Z,68.84
2022-08-26T05:29:40.711Z,69.15
2022-08-26T05:32:07.966Z,69.04
2022-08-26T05:34:37.506Z,69.34
2022-08-26T05:37:06.256Z,70.00
2022-08-26T05:39:33.931Z,69.73
2022-08-26T05:42:01.350Z,69.21
2022-08-26T05:44:29.304Z,69.06
2022-08-26T05:47:16.434Z,68.88
2022-08-26T05:49:49.256Z,69.07
2022-08-26T05:52:19.644Z,68.74
2022-08-26T05:54:47.692Z,68.99
2022-08-26T05:57:15.795Z,68.94
2022-08-26T05:59:42.817Z,68.98
2022-08-26T06:02:10.013Z,68.68
2022-08-26T06:04:37.010Z,68.65
2022-08-26T06:07:04.145Z,68.82
2022-08-26T06:09:32.967Z,68.77
2022-08-26T06:12:01.904Z,68.31
2022-08-26T06:14:30.670Z,67.84
2022-08-26T06:16:57.992Z,68.04
2022-08-26T06:19:25.729Z,67.63
2022-08-26T06:22:23.327Z,68.00
2022-08-26T06:25:09.902Z,67.76
2022-08-26T06:27:37.113Z,67.73
2022-08-26T06:30:04.753Z,67.76
2022-08-26T06:32:31.792Z,68.08
2022-08-26T06:34:59.183Z,67.80
2022-08-26T06:37:26.159Z,67.66
2022-08-26T06:39:53.144Z,67.89
2022-08-26T06:42:20.364Z,68.17
2022-08-26T06:44:47.781Z,67.71
2022-08-26T06:47:15.167Z,67.72
2022-08-26T06:49:42.118Z,67.43
2022-08-26T06:52:11.342Z,67.65
2022-08-26T06:54:43.107Z,67.25
2022-08-26T06:57:12.777Z,67.80
2022-08-26T06:59:41.252Z,67.34
2022-08-26T07:02:08.633Z,67.35
2022-08-26T07:04:41.063Z,67.91
2022-08-26T07:07:09.668Z,67.51
2022-08-26T07:09:37.471Z,67.21
2022-08-26T07:12:07.810Z,67.30
2022-08-26T07:14:36.978Z,66.79
2022-08-26T07:17:04.409Z,66.67
2022-08-26T07:19:31.933Z,66.94
2022-08-26T07:22:03.535Z,67.19
2022-08-26T07:24:37.503Z,66.88
2022-08-26T07:27:09.696Z,66.59
2022-08-26T07:29:39.435Z,66.18
2022-08-26T07:32:07.080Z,65.63
2022-08-26T07:34:34.683Z,65.50
2022-08-26T07:37:02.023Z,65.04
2022-08-26T07:39:31.595Z,64.78
2022-08-26T07:42:07.725Z,65.35
2022-08-26T07:44:37.695Z,65.04
2022-08-26T07:47:24.556Z,65.29
2022-08-26T07:49:54.507Z,65.33
2022-08-26T07:52:26.377Z,64.45
2022-08-26T07:54:58.572Z,65.20
2022-08-26T07:57:27.208Z,65.08
2022-08-26T07:59:55.506Z,65.04
2022-08-26T08:02:23.740Z,64.65
2022-08-26T08:04:51.837Z,64.67
2022-08-26T08:07:18.992Z,64.67
2022-08-26T08:09:49.433Z,64.60
2022-08-26T08:12:19.160Z,64.40
2022-08-26T08:14:46.935Z,64.06
2022-08-26T08:17:16.181Z,63.78
2022-08-26T08:19:43.435Z,64.42
2022-08-26T08:22:17.343Z,63.85
2022-08-26T08:24:50.016Z,63.90
2022-08-26T08:27:23.648Z,63.17
2022-08-26T08:29:55.029Z,63.32
2022-08-26T08:32:23.437Z,63.39
2022-08-26T08:34:50.444Z,63.65
2022-08-26T08:37:17.583Z,63.29
2022-08-26T08:39:44.593Z,63.56
2022-08-26T08:42:30.894Z,63.31
2022-08-26T08:45:04.761Z,62.90
2022-08-26T08:47:47.446Z,63.08
2022-08-26T08:50:35.842Z,61.91
2022-08-26T08:53:15.150Z,62.37
2022-08-26T08:55:50.817Z,61.83
2022-08-26T08:58:21.729Z,61.75
2022-08-26T09:01:00.890Z,60.91
2022-08-26T09:04:18.405Z,60.75
2022-08-26T09:06:47.480Z,60.63
2022-08-26T09:09:24.666Z,60.99
2022-08-26T09:11:52.574Z,61.38
2022-08-26T09:14:19.705Z,61.18
2022-08-26T09:17:09.879Z,61.05
2022-08-26T09:19:48.101Z,60.63
2022-08-26T09:22:36.545Z,60.46
2022-08-26T09:25:11.153Z,59.82
2022-08-26T09:27:41.496Z,59.92
2022-08-26T09:30:12.796Z,59.51
2022-08-26T09:32:40.461Z,58.82
2022-08-26T09:35:26.371Z,58.86
2022-08-26T09:37:53.738Z,58.60
2022-08-26T09:40:34.680Z,58.37
2022-08-26T09:43:10.212Z,58.42
2022-08-26T09:45:41.378Z,58.51
2022-08-26T09:48:37.744Z,59.20
2022-08-26T09:51:32.085Z,58.28
2022-08-26T09:54:02.799Z,58.03
2022-08-26T09:56:34.993Z,57.59
2022-08-26T09:59:04.607Z,57.67
2022-08-26T10:01:43.812Z,57.77
2022-08-26T10:04:21.041Z,57.22
2022-08-26T10:07:08.166Z,56.75
2022-08-26T10:09:45.839Z,55.97
2022-08-26T10:12:21.227Z,55.27
2022-08-26T10:14:55.653Z,56.30
2022-08-26T10:17:32.289Z,56.56
2022-08-26T10:20:24.165Z,57.11
2022-08-26T10:23:18.164Z,56.51
2022-08-26T10:25:59.753Z,56.25
2022-08-26T10:28:44.394Z,55.01
2022-08-26T10:31:41.311Z,54.84
2022-08-26T10:34:09.794Z,55.21
2022-08-26T10:37:13.604Z,54.13
2022-08-26T10:39:57.139Z,54.53
2022-08-26T10:42:37.564Z,54.31
2022-08-26T10:45:14.830Z,53.89
2022-08-26T10:47:57.539Z,53.45
2022-08-26T10:50:33.548Z,53.32
2022-08-26T10:54:01.043Z,53.53
2022-08-26T10:56:32.738Z,52.85
2022-08-26T10:59:06.015Z,52.29
2022-08-26T11:01:51.040Z,51.88
2022-08-26T11:04:35.747Z,51.91
2022-08-26T11:07:44.311Z,52.11
2022-08-26T11:10:20.779Z,52.16
2022-08-26T11:12:53.957Z,51.34
2022-08-26T11:15:24.751Z,51.19
2022-08-26T11:17:52.078Z,51.00
2022-08-26T11:20:44.894Z,51.06
2022-08-26T11:23:12.952Z,50.33
2022-08-26T11:26:05.220Z,50.23
2022-08-26T11:28:51.716Z,49.85
2022-08-26T11:31:19.129Z,48.70
2022-08-26T11:33:58.113Z,48.29
2022-08-26T11:36:49.145Z,47.48
2022-08-26T11:39:54.081Z,48.09
2022-08-26T11:42:49.228Z,47.68
2022-08-26T11:45:22.989Z,47.08
2022-08-26T11:47:50.884Z,46.14
2022-08-26T11:50:36.076Z,45.94
2022-08-26T11:53:06.382Z,46.04
2022-08-26T11:55:42.608Z,46.15
2022-08-26T11:58:12.713Z,46.53
2022-08-26T12:00:46.399Z,44.49
2022-08-26T12:03:23.027Z,44.21
2022-08-26T12:05:52.514Z,43.62
2022-08-26T12:08:27.798Z,42.44
2022-08-26T12:11:09.202Z,42.55
2022-08-26T12:13:39.044Z,42.92
2022-08-26T12:16:06.989Z,42.91
2022-08-26T12:18:39.162Z,43.01
2022-08-26T12:21:24.544Z,42.96
2022-08-26T12:23:55.853Z,43.96
2022-08-26T12:26:36.408Z,43.80
2022-08-26T12:29:26.632Z,43.83
2022-08-26T12:32:14.794Z,43.03
2022-08-26T12:34:44.613Z,43.00
2022-08-26T12:37:14.161Z,43.09
2022-08-26T12:39:44.595Z,42.76
2022-08-26T12:42:17.199Z,42.39
2022-08-26T12:45:03.753Z,42.50
2022-08-26T12:47:43.955Z,43.01
2022-08-26T12:50:28.827Z,43.19
2022-08-26T12:53:31.244Z,44.22
2022-08-26T12:56:03.722Z,43.36
2022-08-26T12:58:37.129Z,43.04
2022-08-26T13:01:04.033Z,43.21
2022-08-26T13:03:33.941Z,42.93
2022-08-26T13:06:29.748Z,42.78
2022-08-26T13:09:08.774Z,42.63
2022-08-26T13:11:59.292Z,42.20
2022-08-26T13:14:29.101Z,42.59
2022-08-26T13:16:56.045Z,42.31
2022-08-26T13:19:25.605Z,41.85
2022-08-26T13:22:00.576Z,41.54
2022-08-26T13:24:37.172Z,41.70
2022-08-26T13:27:08.196Z,41.25
2022-08-26T13:29:35.294Z,40.03
2022-08-26T13:32:05.070Z,40.31
2022-08-26T13:34:32.958Z,40.67
2022-08-26T13:37:00.077Z,40.67
2022-08-26T13:39:27.347Z,40.42
2022-08-26T13:41:54.824Z,40.84
2022-08-26T13:44:21.946Z,41.40
2022-08-26T13:46:49.315Z,40.54
2022-08-26T13:49:16.386Z,40.75
2022-08-26T13:51:43.611Z,40.21
2022-08-26T13:54:10.678Z,40.14
2022-08-26T13:56:37.705Z,40.21
2022-08-26T13:59:06.512Z,41.02
2022-08-26T14:01:35.497Z,40.17
2022-08-26T14:04:03.284Z,40.45
2022-08-26T14:06:30.841Z,39.92
2022-08-26T14:08:58.145Z,40.15
2022-08-26T14:11:25.277Z,40.61
2022-08-26T14:13:52.443Z,39.55
2022-08-26T14:16:34.438Z,40.22
2022-08-26T14:19:02.490Z,40.09
2022-08-26T14:21:32.639Z,40.48
2022-08-26T14:24:01.014Z,40.02
2022-08-26T14:26:29.794Z,39.17
2022-08-26T14:28:59.550Z,37.25
2022-08-26T14:31:29.423Z,37.45
2022-08-26T14:34:04.640Z,37.14
2022-08-26T14:36:33.113Z,37.71
2022-08-26T14:39:10.709Z,37.41
2022-08-26T14:41:57.035Z,38.51
2022-08-26T14:44:32.044Z,36.88
2022-08-26T14:47:02.630Z,38.41
2022-08-26T14:49:31.323Z,38.72
2022-08-26T14:52:00.939Z,38.10
2022-08-26T14:54:29.488Z,37.71
2022-08-26T14:57:07.619Z,38.06
2022-08-26T14:59:42.256Z,38.15
2022-08-26T15:02:27.747Z,37.94
2022-08-26T15:05:02.673Z,38.57
2022-08-26T15:07:30.032Z,38.77
2022-08-26T15:09:57.835Z,39.01
2022-08-26T15:12:24.886Z,39.33
2022-08-26T15:14:52.477Z,38.57
2022-08-26T15:17:20.135Z,37.83
2022-08-26T15:19:47.404Z,38.54
2022-08-26T15:22:14.406Z,38.30
2022-08-26T15:24:41.554Z,38.08
2022-08-26T15:27:09.076Z,38.61
2022-08-26T15:29:36.713Z,38.20
2022-08-26T15:32:04.625Z,37.91
2022-08-26T15:34:32.371Z,38.55
2022-08-26T15:36:59.709Z,38.87
2022-08-26T15:39:27.269Z,38.36
2022-08-26T15:41:56.156Z,38.41
2022-08-26T15:44:25.104Z,38.08
2022-08-26T15:46:56.562Z,39.04
2022-08-26T15:49:25.351Z,38.83
2022-08-26T15:51:52.736Z,39.29
2022-08-26T15:54:23.333Z,39.48
2022-08-26T15:56:52.174Z,39.29
2022-08-26T15:59:21.497Z,39.83
2022-08-26T16:01:48.676Z,39.58
2022-08-26T16:04:15.925Z,40.16
2022-08-26T16:06:43.636Z,40.16
2022-08-26T16:09:11.475Z,39.78
2022-08-26T16:11:39.463Z,40.67
2022-08-26T16:14:07.207Z,38.90
2022-08-26T16:16:39.311Z,38.99
2022-08-26T16:19:08.232Z,39.38
2022-08-26T16:21:35.985Z,39.01
2022-08-26T16:24:04.141Z,38.61
2022-08-26T16:26:34.418Z,38.93
2022-08-26T16:29:06.767Z,39.06
2022-08-26T16:31:35.534Z,38.27
2022-08-26T16:34:02.810Z,38.75
2022-08-26T16:36:29.989Z,38.56
2022-08-26T16:38:57.052Z,38.94
2022-08-26T16:41:29.606Z,38.72
2022-08-26T16:43:57.586Z,39.42
2022-08-26T16:46:28.700Z,39.24
2022-08-26T16:48:57.787Z,38.82
2022-08-26T16:51:27.855Z,39.61
2022-08-26T16:53:56.948Z,39.71
2022-08-26T16:56:33.401Z,40.41
2022-08-26T16:59:06.615Z,40.18
2022-08-26T17:01:34.172Z,40.20
2022-08-26T17:04:01.379Z,40.35
2022-08-26T17:06:28.729Z,40.66
2022-08-26T17:08:55.936Z,40.29
2022-08-26T17:11:23.657Z,40.62
2022-08-26T17:13:51.061Z,40.28
2022-08-26T17:16:18.421Z,40.80
2022-08-26T17:18:45.749Z,41.05
2022-08-26T17:21:13.860Z,40.90
2022-08-26T17:23:42.915Z,40.31
2022-08-26T17:26:12.370Z,40.60
2022-08-26T17:28:40.609Z,41.48
2022-08-26T17:31:11.188Z,41.08
2022-08-26T17:33:39.745Z,40.73
2022-08-26T17:36:09.372Z,41.60
2022-08-26T17:38:38.211Z,41.39
2022-08-26T17:41:11.109Z,42.04
2022-08-26T17:43:39.316Z,41.31
2022-08-26T17:46:10.813Z,40.69
2022-08-26T17:48:40.861Z,41.03
2022-08-26T17:51:12.502Z,41.34
2022-08-26T17:53:41.373Z,41.63
2022-08-26T17:56:14.947Z,41.53
2022-08-26T17:58:51.020Z,40.97
2022-08-26T18:01:20.804Z,41.35
2022-08-26T18:03:48.765Z,42.05
2022-08-26T18:06:15.837Z,41.38
2022-08-26T18:08:43.985Z,41.09
2022-08-26T18:11:14.776Z,41.61
2022-08-26T18:13:47.005Z,42.45
2022-08-26T18:16:17.511Z,42.42
2022-08-26T18:18:45.627Z,42.22
2022-08-26T18:21:16.986Z,42.99
2022-08-26T18:23:45.644Z,42.82
2022-08-26T18:26:33.635Z,43.37
2022-08-26T18:29:01.102Z,43.56
2022-08-26T18:31:29.585Z,44.33
2022-08-26T18:33:57.221Z,44.54
2022-08-26T18:36:32.850Z,44.76
2022-08-26T18:39:01.266Z,45.02
2022-08-26T18:41:31.587Z,45.23
2022-08-26T18:44:00.299Z,46.27
2022-08-26T18:46:28.342Z,46.44
2022-08-26T18:48:57.444Z,46.52
2022-08-26T18:51:29.990Z,46.72
2022-08-26T18:54:01.232Z,46.93
2022-08-26T18:56:29.884Z,47.55
2022-08-26T18:58:58.396Z,47.62
2022-08-26T19:01:27.808Z,47.98
2022-08-26T19:04:00.116Z,48.11
2022-08-26T19:06:31.597Z,48.59
2022-08-26T19:09:00.280Z,49.38
2022-08-26T19:11:32.452Z,49.52
2022-08-26T19:14:13.593Z,49.66
2022-08-26T19:16:44.625Z,49.81
2022-08-26T19:19:13.248Z,49.99
2022-08-26T19:21:55.522Z,50.53
2022-08-26T19:24:25.997Z,50.89
2022-08-26T19:27:00.091Z,51.05
2022-08-26T19:29:33.224Z,51.64
2022-08-26T19:32:02.098Z,51.87
2022-08-26T19:34:29.899Z,52.10
2022-08-26T19:36:58.804Z,52.39
2022-08-26T19:39:26.935Z,52.65
2022-08-26T19:41:54.194Z,53.20
2022-08-26T19:44:41.628Z,52.91
2022-08-26T19:47:10.531Z,52.92
2022-08-26T19:49:38.255Z,53.44
2022-08-26T19:52:06.543Z,53.23
2022-08-26T19:54:36.175Z,53.21
2022-08-26T19:57:04.068Z,53.75
2022-08-26T19:59:33.102Z,54.21
2022-08-26T20:02:01.341Z,54.52
2022-08-26T20:04:31.248Z,55.02
2022-08-26T20:07:01.951Z,55.20
2022-08-26T20:09:31.035Z,55.18
2022-08-26T20:11:58.797Z,55.40
2022-08-26T20:14:30.305Z,55.84
2022-08-26T20:16:57.857Z,55.81
2022-08-26T20:19:46.110Z,56.25
2022-08-26T20:22:18.880Z,56.50
2022-08-26T20:24:47.163Z,56.78
2022-08-26T20:27:15.579Z,57.35
2022-08-26T20:29:43.133Z,57.28
2022-08-26T20:32:11.936Z,57.31
2022-08-26T20:34:40.387Z,56.43
2022-08-26T20:37:08.529Z,56.87
2022-08-26T20:39:35.925Z,56.87
2022-08-26T20:42:04.310Z,57.42
2022-08-26T20:44:32.715Z,57.39
2022-08-26T20:47:02.485Z,57.65
2022-08-26T20:49:31.097Z,57.70
2022-08-26T20:52:00.248Z,57.70
2022-08-26T20:54:28.601Z,57.63
2022-08-26T20:56:58.211Z,58.26
2022-08-26T20:59:26.439Z,57.89
2022-08-26T21:01:53.983Z,58.25
2022-08-26T21:04:27.496Z,58.33
2022-08-26T21:06:55.706Z,58.08
2022-08-26T21:09:25.090Z,57.88
2022-08-26T21:11:53.846Z,57.94
2022-08-26T21:14:22.935Z,57.97
2022-08-26T21:16:53.625Z,57.82
2022-08-26T21:19:21.062Z,57.96
2022-08-26T21:21:50.762Z,57.85
2022-08-26T21:24:18.129Z,58.05
2022-08-26T21:26:46.104Z,57.65
2022-08-26T21:29:13.989Z,58.05
2022-08-26T21:31:46.505Z,57.59
2022-08-26T21:34:17.732Z,58.20
2022-08-26T21:36:52.520Z,57.63
2022-08-26T21:39:19.936Z,57.77
2022-08-26T21:41:47.341Z,57.29
2022-08-26T21:44:16.713Z,57.37
2022-08-26T21:46:45.669Z,57.14
2022-08-26T21:49:15.941Z,56.96
2022-08-26T21:51:47.492Z,56.56
2022-08-26T21:54:15.653Z,56.93
2022-08-26T21:56:46.816Z,57.27
2022-08-26T21:59:18.279Z,57.41
2022-08-26T22:01:48.643Z,57.57
2022-08-26T22:04:17.172Z,57.81
2022-08-26T22:06:51.862Z,58.22
2022-08-26T22:09:23.157Z,58.70
2022-08-26T22:11:51.318Z,58.48
2022-08-26T22:14:30.427Z,58.52
2022-08-26T22:16:59.567Z,58.41
2022-08-26T22:19:26.990Z,58.40
2022-08-26T22:21:55.711Z,58.12
2022-08-26T22:24:25.967Z,57.86
2022-08-26T22:26:54.680Z,58.13
2022-08-26T22:29:22.530Z,57.73
2022-08-26T22:31:49.809Z,57.72
2022-08-26T22:34:19.481Z,58.32
2022-08-26T22:36:49.108Z,58.50
2022-08-26T22:39:22.108Z,58.45
2022-08-26T22:41:49.933Z,58.76
2022-08-26T22:44:20.488Z,58.31
2022-08-26T22:46:50.310Z,57.96
2022-08-26T22:49:17.768Z,57.16
2022-08-26T22:51:46.436Z,57.62
2022-08-26T22:54:15.559Z,57.67
2022-08-26T22:56:45.060Z,57.39
2022-08-26T22:59:13.127Z,57.50
2022-08-26T23:01:43.502Z,57.28
2022-08-26T23:04:11.169Z,57.48
2022-08-26T23:06:43.250Z,57.94
2022-08-26T23:09:18.222Z,58.15
2022-08-26T23:11:47.545Z,57.70
2022-08-26T23:14:16.991Z,58.33
2022-08-26T23:16:44.393Z,58.03
2022-08-26T23:19:14.515Z,58.10
2022-08-26T23:21:42.268Z,57.84
2022-08-26T23:24:10.139Z,58.19
2022-08-26T23:26:38.812Z,58.05
2022-08-26T23:29:08.761Z,57.99
2022-08-26T23:31:38.729Z,58.63
2022-08-26T23:34:24.921Z,58.62
2022-08-26T23:36:52.825Z,58.65
2022-08-26T23:39:21.175Z,58.66
2022-08-26T23:41:48.292Z,58.01
2022-08-26T23:44:15.321Z,58.12
2022-08-26T23:46:43.085Z,58.14
2022-08-26T23:49:10.503Z,58.34
2022-08-26T23:51:56.964Z,58.59
2022-08-26T23:54:24.264Z,58.29
2022-08-26T23:56:51.327Z,59.30
2022-08-26T23:59:18.397Z,58.93
